createdAt,value
2023-01-01T00:00:28.347Z,54.14
2023-01-01T00:02:54.968Z,54.57
2023-01-01T00:05:21.686Z,54.37
2023-01-01T00:07:48.293Z,54.81
2023-01-01T00:10:15.013Z,54.98
2023-01-01T00:12:41.855Z,54.19
2023-01-01T00:15:08.747Z,54.40
2023-01-01T00:17:35.449Z,54.23
2023-01-01T00:20:02.156Z,54.74
2023-01-01T00:22:53.278Z,54.93
2023-01-01T00:25:15.886Z,55.47
2023-01-01T00:27:42.751Z,55.02
2023-01-01T00:30:10.857Z,54.96
2023-01-01T00:32:37.587Z,55.02
2023-01-01T00:35:04.535Z,54.77
2023-01-01T00:37:31.136Z,55.04
2023-01-01T00:39:57.784Z,55.02
2023-01-01T00:42:24.445Z,54.96
2023-01-01T00:44:51.111Z,54.84
2023-01-01T00:47:17.905Z,54.63
2023-01-01T00:49:44.545Z,56.03
2023-01-01T00:52:11.175Z,55.55
2023-01-01T00:54:37.904Z,55.29
2023-01-01T00:57:04.734Z,54.63
2023-01-01T00:59:31.442Z,54.62
2023-01-01T01:01:58.206Z,55.53
2023-01-01T01:04:25.366Z,55.15
2023-01-01T01:06:51.987Z,55.01
2023-01-01T01:09:18.737Z,54.93
2023-01-01T01:11:45.327Z,55.69
2023-01-01T01:14:12.612Z,55.23
2023-01-01T01:16:39.307Z,55.47
2023-01-01T01:19:06.512Z,54.89
2023-01-01T01:21:34.791Z,55.60
2023-01-01T01:24:03.362Z,55.35
2023-01-01T01:26:32.765Z,55.28
2023-01-01T01:28:59.911Z,54.81
2023-01-01T01:31:31.366Z,55.36
2023-01-01T01:33:58.261Z,55.67
2023-01-01T01:36:26.457Z,55.48
2023-01-01T01:38:53.405Z,55.95
2023-01-01T01:41:29.781Z,56.14
2023-01-01T01:44:02.333Z,56.64
2023-01-01T01:46:40.343Z,56.71
2023-01-01T01:49:29.074Z,56.52
2023-01-01T01:51:56.532Z,56.91
2023-01-01T01:54:25.797Z,56.69
2023-01-01T01:56:57.752Z,57.01
2023-01-01T01:59:30.120Z,57.51
2023-01-01T02:01:57.556Z,56.94
2023-01-01T02:04:24.718Z,56.63
2023-01-01T02:06:52.614Z,56.78
2023-01-01T02:09:19.256Z,57.38
2023-01-01T02:11:46.046Z,57.50
2023-01-01T02:14:12.788Z,57.78
2023-01-01T02:16:57.991Z,57.46
2023-01-01T02:19:48.856Z,57.66
2023-01-01T02:22:24.677Z,58.72
2023-01-01T02:25:29.521Z,58.53
2023-01-01T02:28:11.803Z,58.78
2023-01-01T02:30:41.505Z,58.67
2023-01-01T02:33:13.076Z,58.42
2023-01-01T02:35:45.551Z,58.32
2023-01-01T02:38:37.997Z,58.18
2023-01-01T02:41:26.330Z,58.67
2023-01-01T02:43:53.799Z,58.13
2023-01-01T02:48:51.703Z,58.66
2023-01-01T02:51:33.352Z,59.26
2023-01-01T02:54:04.699Z,58.98
2023-01-01T02:56:46.302Z,59.04
2023-01-01T02:59:12.993Z,58.58
2023-01-01T03:02:00.869Z,58.94
2023-01-01T03:04:41.001Z,58.54
2023-01-01T03:07:35.327Z,59.22
2023-01-01T03:10:12.442Z,58.74
2023-01-01T03:12:46.981Z,58.96
2023-01-01T03:15:19.918Z,59.47
2023-01-01T03:17:57.557Z,59.23
2023-01-01T03:20:27.810Z,59.48
2023-01-01T03:23:02.094Z,59.22
2023-01-01T03:25:34.052Z,59.16
2023-01-01T03:28:08.093Z,59.15
2023-01-01T03:30:38.648Z,59.72
2023-01-01T03:33:13.461Z,60.09
2023-01-01T03:35:48.566Z,60.15
2023-01-01T03:38:24.627Z,59.84
2023-01-01T03:40:58.029Z,59.32
2023-01-01T03:43:39.558Z,59.32
2023-01-01T03:46:08.763Z,59.24
2023-01-01T03:48:35.793Z,59.71
2023-01-01T03:51:18.364Z,59.67
2023-01-01T03:53:45.091Z,59.76
2023-01-01T03:56:21.244Z,59.99
2023-01-01T03:59:00.562Z,60.14
2023-01-01T04:01:34.821Z,59.85
2023-01-01T04:04:04.980Z,59.83
2023-01-01T04:06:34.796Z,60.37
2023-01-01T04:09:03.120Z,60.49
2023-01-01T04:11:32.508Z,59.32
2023-01-01T04:14:01.299Z,59.46
2023-01-01T04:16:28.115Z,59.70
2023-01-01T04:18:54.892Z,59.57
2023-01-01T04:21:21.465Z,59.45
2023-01-01T04:23:49.453Z,59.86
2023-01-01T04:26:16.606Z,59.43
2023-01-01T04:28:43.287Z,59.31
2023-01-01T04:31:10.052Z,60.09
2023-01-01T04:33:36.815Z,59.74
2023-01-01T04:36:08.849Z,59.49
2023-01-01T04:38:36.923Z,58.66
2023-01-01T04:41:04.886Z,58.49
2023-01-01T04:43:32.009Z,59.10
2023-01-01T04:46:00.568Z,59.51
2023-01-01T04:48:28.566Z,59.45
2023-01-01T04:51:03.389Z,59.67
2023-01-01T04:53:32.782Z,60.22
2023-01-01T04:56:15.149Z,59.58
2023-01-01T04:58:43.149Z,59.66
2023-01-01T05:01:22.527Z,59.83
2023-01-01T05:03:49.828Z,60.48
2023-01-01T05:06:16.759Z,60.67
2023-01-01T05:08:45.759Z,61.16
2023-01-01T05:11:16.752Z,60.63
2023-01-01T05:13:45.777Z,60.18
2023-01-01T05:16:15.691Z,59.79
2023-01-01T05:18:43.382Z,60.14
2023-01-01T05:21:13.890Z,60.52
2023-01-01T05:23:40.704Z,60.57
2023-01-01T05:26:19.172Z,60.31
2023-01-01T05:28:47.109Z,59.78
2023-01-01T05:31:15.623Z,60.37
2023-01-01T05:33:42.606Z,60.84
2023-01-01T05:36:14.589Z,61.08
2023-01-01T05:38:41.382Z,61.31
2023-01-01T05:41:09.627Z,60.82
2023-01-01T05:43:36.805Z,61.08
2023-01-01T05:46:05.992Z,61.28
2023-01-01T05:48:33.508Z,61.72
2023-01-01T05:51:17.552Z,61.75
2023-01-01T05:53:44.260Z,61.95
2023-01-01T05:56:12.008Z,61.96
2023-01-01T05:58:39.028Z,61.73
2023-01-01T06:01:10.578Z,61.41
2023-01-01T06:03:37.274Z,61.85
2023-01-01T06:06:18.456Z,61.75
2023-01-01T06:08:51.181Z,61.47
2023-01-01T06:11:18.213Z,61.99
2023-01-01T06:13:45.023Z,61.43
2023-01-01T06:16:12.529Z,62.84
2023-01-01T06:18:40.991Z,62.98
2023-01-01T06:21:15.000Z,62.26
2023-01-01T06:23:42.482Z,61.60
2023-01-01T06:26:12.342Z,62.20
2023-01-01T06:28:40.103Z,62.09
2023-01-01T06:31:09.726Z,62.00
2023-01-01T06:33:37.521Z,61.71
2023-01-01T06:36:06.367Z,61.58
2023-01-01T06:38:34.799Z,60.99
2023-01-01T06:41:04.608Z,60.91
2023-01-01T06:43:33.363Z,61.36
2023-01-01T06:46:26.328Z,61.17
2023-01-01T06:48:55.877Z,61.24
2023-01-01T06:51:24.953Z,61.90
2023-01-01T06:53:52.651Z,61.68
2023-01-01T06:56:20.365Z,61.05
2023-01-01T06:58:47.581Z,61.84
2023-01-01T07:01:23.089Z,61.81
2023-01-01T07:03:57.867Z,61.75
2023-01-01T07:06:25.752Z,61.02
2023-01-01T07:08:52.538Z,61.21
2023-01-01T07:11:19.565Z,61.43
2023-01-01T07:13:46.280Z,61.43
2023-01-01T07:16:13.979Z,61.71
2023-01-01T07:18:41.308Z,62.35
2023-01-01T07:21:45.115Z,62.05
2023-01-01T07:24:14.528Z,62.13
2023-01-01T07:26:41.174Z,61.33
2023-01-01T07:29:08.666Z,61.17
2023-01-01T07:31:37.713Z,61.29
2023-01-01T07:34:05.527Z,61.43
2023-01-01T07:36:32.321Z,62.55
2023-01-01T07:38:59.036Z,62.08
2023-01-01T07:41:25.702Z,62.43
2023-01-01T07:43:52.766Z,62.20
2023-01-01T07:46:19.585Z,62.72
2023-01-01T07:48:46.495Z,62.04
2023-01-01T07:51:13.463Z,61.94
2023-01-01T07:53:40.111Z,61.58
2023-01-01T07:56:07.514Z,61.59
2023-01-01T07:58:34.293Z,61.89
2023-01-01T08:01:00.942Z,62.10
2023-01-01T08:03:27.804Z,62.73
2023-01-01T08:05:54.754Z,62.20
2023-01-01T08:08:21.505Z,61.78
2023-01-01T08:10:48.125Z,62.10
2023-01-01T08:13:15.189Z,62.10
2023-01-01T08:15:41.863Z,62.20
2023-01-01T08:18:09.459Z,62.05
2023-01-01T08:20:36.111Z,61.70
2023-01-01T08:23:07.126Z,61.62
2023-01-01T08:25:35.054Z,61.65
2023-01-01T08:28:01.750Z,61.59
2023-01-01T08:30:28.501Z,61.24
2023-01-01T08:32:55.184Z,61.43
2023-01-01T08:35:21.944Z,61.44
2023-01-01T08:37:48.579Z,61.03
2023-01-01T08:40:15.288Z,61.51
2023-01-01T08:42:42.030Z,61.49
2023-01-01T08:45:09.535Z,61.48
2023-01-01T08:47:36.216Z,61.55
2023-01-01T08:50:03.236Z,61.43
2023-01-01T08:52:29.819Z,61.48
2023-01-01T08:54:56.545Z,61.46
2023-01-01T08:57:23.213Z,61.27
2023-01-01T08:59:49.889Z,61.10
2023-01-01T09:02:16.658Z,60.71
2023-01-01T09:04:43.578Z,60.81
2023-01-01T09:07:10.204Z,60.76
2023-01-01T09:09:36.838Z,61.41
2023-01-01T09:12:04.525Z,60.53
2023-01-01T09:14:32.166Z,60.13
2023-01-01T09:16:58.762Z,59.53
2023-01-01T09:19:25.607Z,60.09
2023-01-01T09:21:52.530Z,59.46
2023-01-01T09:24:19.204Z,59.41
2023-01-01T09:26:46.517Z,59.07
2023-01-01T09:29:13.254Z,59.52
2023-01-01T09:31:39.902Z,59.30
2023-01-01T09:34:06.634Z,59.70
2023-01-01T09:36:33.683Z,61.05
2023-01-01T09:39:01.154Z,60.31
2023-01-01T09:42:05.054Z,60.89
2023-01-01T09:44:53.263Z,60.64
2023-01-01T09:47:42.840Z,59.48
2023-01-01T09:50:14.520Z,59.35
2023-01-01T09:52:54.117Z,59.21
2023-01-01T09:55:57.740Z,59.49
2023-01-01T09:58:27.926Z,59.26
2023-01-01T10:01:02.937Z,59.96
2023-01-01T10:03:41.941Z,60.81
2023-01-01T10:06:27.269Z,61.02
2023-01-01T10:08:56.971Z,61.05
2023-01-01T10:11:36.774Z,61.00
2023-01-01T10:14:14.517Z,61.44
2023-01-01T10:16:45.769Z,61.28
2023-01-01T10:19:28.347Z,60.77
2023-01-01T10:22:01.997Z,60.60
2023-01-01T10:24:31.716Z,60.38
2023-01-01T10:26:58.984Z,61.22
2023-01-01T10:29:38.537Z,61.66
2023-01-01T10:32:27.879Z,62.26
2023-01-01T10:34:55.689Z,62.48
2023-01-01T10:37:22.369Z,61.98
2023-01-01T10:39:49.835Z,62.02
2023-01-01T10:42:16.813Z,61.13
2023-01-01T10:44:43.759Z,61.29
2023-01-01T10:47:25.147Z,61.35
2023-01-01T10:50:03.478Z,61.17
2023-01-01T10:52:41.270Z,61.37
2023-01-01T10:55:23.797Z,61.60
2023-01-01T10:57:50.503Z,61.22
2023-01-01T11:00:26.111Z,61.54
2023-01-01T11:03:18.785Z,61.67
2023-01-01T11:06:18.461Z,61.24
2023-01-01T11:08:56.667Z,62.55
2023-01-01T11:11:27.823Z,61.46
2023-01-01T11:13:58.439Z,61.29
2023-01-01T11:16:26.879Z,61.79
2023-01-01T11:19:02.494Z,61.74
2023-01-01T11:21:29.415Z,60.94
2023-01-01T11:24:16.842Z,60.08
2023-01-01T11:26:46.662Z,60.17
2023-01-01T11:29:15.758Z,60.97
2023-01-01T11:31:45.156Z,61.14
2023-01-01T11:34:30.693Z,61.51
2023-01-01T11:37:26.311Z,62.28
2023-01-01T11:39:55.388Z,60.88
2023-01-01T11:42:25.342Z,60.99
2023-01-01T11:44:59.530Z,60.72
2023-01-01T11:47:34.380Z,60.69
2023-01-01T11:50:24.721Z,62.17
2023-01-01T11:52:52.954Z,61.72
2023-01-01T11:55:41.083Z,62.18
2023-01-01T11:58:19.860Z,62.88
2023-01-01T12:00:50.904Z,62.82
2023-01-01T12:03:33.836Z,62.38
2023-01-01T12:06:19.294Z,62.50
2023-01-01T12:09:11.943Z,62.22
2023-01-01T12:11:48.278Z,61.72
2023-01-01T12:14:46.442Z,61.87
2023-01-01T12:17:22.656Z,61.13
2023-01-01T12:20:07.821Z,61.28
2023-01-01T12:22:35.149Z,61.52
2023-01-01T12:25:03.524Z,61.20
2023-01-01T12:27:39.625Z,61.44
2023-01-01T12:30:24.938Z,61.35
2023-01-01T12:32:54.605Z,62.19
2023-01-01T12:35:53.994Z,61.86
2023-01-01T12:38:32.899Z,61.99
2023-01-01T12:41:33.374Z,62.70
2023-01-01T12:44:16.876Z,62.73
2023-01-01T12:46:55.566Z,62.21
2023-01-01T12:49:57.415Z,62.71
2023-01-01T12:52:39.060Z,62.43
2023-01-01T12:55:36.183Z,62.50
2023-01-01T12:58:21.624Z,62.89
2023-01-01T13:01:01.171Z,62.72
2023-01-01T13:03:47.115Z,62.51
2023-01-01T13:06:17.643Z,61.52
2023-01-01T13:08:50.456Z,62.27
2023-01-01T13:11:17.929Z,62.75
2023-01-01T13:13:44.615Z,63.29
2023-01-01T13:16:12.840Z,62.94
2023-01-01T13:18:41.256Z,62.79
2023-01-01T13:21:22.675Z,62.98
2023-01-01T13:23:50.977Z,62.52
2023-01-01T13:26:17.623Z,61.97
2023-01-01T13:28:59.765Z,62.17
2023-01-01T13:31:38.758Z,63.58
2023-01-01T13:34:30.848Z,62.71
2023-01-01T13:37:12.581Z,62.75
2023-01-01T13:39:58.800Z,62.47
2023-01-01T13:42:43.518Z,62.45
2023-01-01T13:46:00.707Z,63.11
2023-01-01T13:48:30.025Z,63.10
2023-01-01T13:52:02.897Z,62.93
2023-01-01T13:54:52.565Z,63.38
2023-01-01T13:57:34.523Z,63.09
2023-01-01T14:00:07.605Z,63.17
2023-01-01T14:02:45.342Z,62.69
2023-01-01T14:05:26.083Z,62.54
2023-01-01T14:07:54.797Z,63.73
2023-01-01T14:10:32.633Z,63.33
2023-01-01T14:13:16.339Z,63.21
2023-01-01T14:15:58.494Z,63.14
2023-01-01T14:18:47.675Z,62.69
2023-01-01T14:21:22.563Z,63.48
2023-01-01T14:23:54.243Z,63.89
2023-01-01T14:26:23.247Z,64.03
2023-01-01T14:28:55.319Z,63.18
2023-01-01T14:31:26.845Z,62.93
2023-01-01T14:33:53.811Z,63.23
2023-01-01T14:36:27.417Z,63.31
2023-01-01T14:38:56.402Z,62.85
2023-01-01T14:41:22.951Z,62.74
2023-01-01T14:43:52.523Z,63.25
2023-01-01T14:46:21.027Z,62.51
2023-01-01T14:48:57.030Z,63.74
2023-01-01T14:51:26.657Z,63.88
2023-01-01T14:53:58.760Z,64.16
2023-01-01T14:56:31.351Z,63.82
2023-01-01T14:59:16.436Z,63.90
2023-01-01T15:01:43.416Z,63.73
2023-01-01T15:04:20.850Z,63.35
2023-01-01T15:06:56.492Z,63.56
2023-01-01T15:09:23.846Z,62.64
2023-01-01T15:11:57.677Z,63.41
2023-01-01T15:14:42.351Z,63.58
2023-01-01T15:17:36.620Z,63.66
2023-01-01T15:20:23.015Z,62.24
2023-01-01T15:22:50.462Z,63.17
2023-01-01T15:25:19.406Z,63.16
2023-01-01T15:27:50.804Z,62.92
2023-01-01T15:30:33.054Z,63.43
2023-01-01T15:33:08.755Z,62.90
2023-01-01T15:35:36.997Z,62.74
2023-01-01T15:38:24.224Z,62.65
2023-01-01T15:40:53.272Z,62.62
2023-01-01T15:43:24.913Z,63.14
2023-01-01T15:45:54.614Z,62.51
2023-01-01T15:48:48.801Z,62.87
2023-01-01T15:51:23.277Z,62.78
2023-01-01T15:54:03.496Z,62.38
2023-01-01T15:56:32.968Z,62.67
2023-01-01T15:59:09.154Z,63.58
2023-01-01T16:01:39.122Z,63.37
2023-01-01T16:04:17.643Z,63.31
2023-01-01T16:06:49.659Z,63.49
2023-01-01T16:09:18.122Z,63.41
2023-01-01T16:11:45.997Z,64.15
2023-01-01T16:14:17.672Z,63.58
2023-01-01T16:16:53.304Z,63.47
2023-01-01T16:22:03.644Z,62.67
2023-01-01T16:24:32.641Z,62.30
2023-01-01T16:26:59.424Z,61.65
2023-01-01T16:29:28.863Z,62.24
2023-01-01T16:31:55.881Z,62.35
2023-01-01T16:34:22.532Z,61.83
2023-01-01T16:36:49.334Z,61.74
2023-01-01T16:39:16.036Z,61.34
2023-01-01T16:41:43.947Z,61.68
2023-01-01T16:44:15.503Z,60.84
2023-01-01T16:46:43.191Z,60.45
2023-01-01T16:49:10.335Z,60.39
2023-01-01T16:51:40.660Z,59.74
2023-01-01T16:54:11.480Z,60.20
2023-01-01T16:56:38.306Z,59.62
2023-01-01T16:59:06.848Z,59.71
2023-01-01T17:01:34.006Z,59.83
2023-01-01T17:04:01.254Z,60.23
2023-01-01T17:06:27.907Z,60.25
2023-01-01T17:08:54.660Z,60.03
2023-01-01T17:11:21.280Z,59.82
2023-01-01T17:13:48.729Z,61.16
2023-01-01T17:16:21.369Z,60.31
2023-01-01T17:21:41.704Z,60.06
2023-01-01T17:24:08.465Z,60.31
2023-01-01T17:26:35.286Z,59.84
2023-01-01T17:29:02.577Z,59.40
2023-01-01T17:31:29.737Z,59.46
2023-01-01T17:33:56.963Z,59.91
2023-01-01T17:36:24.819Z,59.93
2023-01-01T17:38:52.231Z,59.55
2023-01-01T17:41:19.193Z,60.47
2023-01-01T17:43:48.050Z,59.97
2023-01-01T17:46:24.307Z,59.43
2023-01-01T17:48:51.977Z,59.68
2023-01-01T17:51:19.198Z,61.64
2023-01-01T17:53:46.904Z,61.68
2023-01-01T17:56:16.151Z,61.84
2023-01-01T17:58:44.175Z,61.34
2023-01-01T18:01:10.840Z,61.20
2023-01-01T18:03:39.990Z,59.99
2023-01-01T18:06:07.768Z,60.70
2023-01-01T18:08:34.572Z,59.02
2023-01-01T18:11:01.367Z,58.51
2023-01-01T18:13:28.125Z,59.03
2023-01-01T18:15:59.213Z,59.08
2023-01-01T18:18:26.111Z,58.61
2023-01-01T18:20:52.693Z,59.53
2023-01-01T18:23:19.407Z,59.04
2023-01-01T18:25:46.079Z,58.09
2023-01-01T18:28:12.727Z,58.68
2023-01-01T18:30:39.353Z,57.88
2023-01-01T18:33:06.155Z,58.36
2023-01-01T18:35:34.244Z,57.91
2023-01-01T18:38:00.923Z,58.17
2023-01-01T18:40:31.897Z,58.99
2023-01-01T18:43:06.105Z,56.72
2023-01-01T18:45:34.510Z,58.01
2023-01-01T18:48:03.088Z,59.07
2023-01-01T18:50:29.867Z,59.41
2023-01-01T18:53:08.733Z,59.12
2023-01-01T18:55:35.444Z,59.34
2023-01-01T18:58:17.390Z,59.13
2023-01-01T19:00:44.301Z,60.54
2023-01-01T19:03:20.892Z,61.06
2023-01-01T19:05:47.643Z,61.83
2023-01-01T19:08:17.404Z,64.03
2023-01-01T19:10:53.488Z,64.41
2023-01-01T19:13:30.344Z,62.75
2023-01-01T19:16:08.336Z,64.20
2023-01-01T19:18:35.338Z,65.63
2023-01-01T19:21:07.793Z,67.41
2023-01-01T19:23:36.598Z,67.05
2023-01-01T19:26:05.774Z,66.13
2023-01-01T19:28:35.167Z,67.18
2023-01-01T19:31:03.556Z,67.60
2023-01-01T19:33:30.470Z,66.57
2023-01-01T19:35:57.927Z,66.73
2023-01-01T19:38:24.777Z,66.09
2023-01-01T19:40:51.478Z,63.83
2023-01-01T19:43:18.577Z,63.25
2023-01-01T19:45:45.301Z,62.61
2023-01-01T19:48:12.089Z,62.44
2023-01-01T19:50:38.770Z,62.68
2023-01-01T19:53:12.604Z,62.07
2023-01-01T19:55:39.400Z,62.92
2023-01-01T19:58:06.248Z,68.28
2023-01-01T20:00:32.927Z,64.51
2023-01-01T20:03:19.220Z,63.90
2023-01-01T20:05:47.764Z,63.32
2023-01-01T20:08:14.432Z,63.78
2023-01-01T20:10:41.109Z,63.52
2023-01-01T20:13:07.694Z,63.56
2023-01-01T20:15:34.441Z,63.75
2023-01-01T20:18:01.153Z,63.87
2023-01-01T20:20:28.709Z,64.66
2023-01-01T20:22:55.417Z,65.01
2023-01-01T20:25:22.062Z,63.95
2023-01-01T20:27:54.698Z,63.39
2023-01-01T20:30:23.082Z,63.26
2023-01-01T20:32:49.814Z,63.03
2023-01-01T20:35:17.223Z,62.89
2023-01-01T20:37:43.909Z,62.29
2023-01-01T20:40:11.455Z,62.22
2023-01-01T20:42:38.297Z,62.47
2023-01-01T20:45:07.170Z,61.93
2023-01-01T20:47:34.148Z,62.06
2023-01-01T20:50:00.839Z,61.70
2023-01-01T20:52:27.718Z,61.74
2023-01-01T20:54:54.510Z,61.91
2023-01-01T20:57:21.106Z,62.11
2023-01-01T20:59:47.945Z,61.79
2023-01-01T21:02:15.987Z,61.57
2023-01-01T21:04:42.792Z,61.61
2023-01-01T21:07:11.334Z,62.24
2023-01-01T21:09:39.184Z,62.37
2023-01-01T21:12:06.731Z,61.98
2023-01-01T21:14:33.701Z,61.58
2023-01-01T21:17:00.623Z,61.64
2023-01-01T21:19:27.919Z,61.69
2023-01-01T21:21:58.111Z,61.83
2023-01-01T21:24:37.244Z,61.91
2023-01-01T21:27:24.361Z,61.58
2023-01-01T21:29:53.052Z,61.45
2023-01-01T21:32:40.580Z,61.12
2023-01-01T21:35:19.297Z,61.18
2023-01-01T21:37:48.635Z,60.79
2023-01-01T21:40:36.386Z,60.83
2023-01-01T21:43:06.893Z,60.63
2023-01-01T21:45:36.050Z,60.92
2023-01-01T21:48:11.549Z,61.14
2023-01-01T21:50:41.315Z,61.03
2023-01-01T21:53:35.415Z,61.13
2023-01-01T21:56:32.001Z,62.03
2023-01-01T21:59:09.597Z,63.56
2023-01-01T22:01:43.329Z,64.53
2023-01-01T22:04:10.039Z,65.38
2023-01-01T22:06:40.246Z,65.47
2023-01-01T22:09:35.922Z,65.67
2023-01-01T22:12:22.907Z,64.76
2023-01-01T22:14:52.290Z,65.71
2023-01-01T22:17:37.258Z,65.42
2023-01-01T22:20:22.933Z,64.51
2023-01-01T22:22:52.204Z,63.94
2023-01-01T22:25:27.469Z,63.11
2023-01-01T22:27:54.747Z,63.19
2023-01-01T22:30:42.100Z,63.55
2023-01-01T22:33:22.557Z,64.66
2023-01-01T22:35:53.226Z,65.32
2023-01-01T22:38:21.994Z,64.87
2023-01-01T22:40:50.538Z,64.57
2023-01-01T22:43:22.511Z,64.80
2023-01-01T22:45:49.988Z,65.25
2023-01-01T22:48:29.243Z,64.32
2023-01-01T22:51:02.633Z,63.45
2023-01-01T22:53:29.546Z,63.96
2023-01-01T22:55:56.226Z,62.64
2023-01-01T22:58:23.930Z,62.12
2023-01-01T23:00:50.713Z,61.12
2023-01-01T23:03:21.934Z,61.36
2023-01-01T23:05:48.950Z,61.03
2023-01-01T23:08:15.578Z,61.19
2023-01-01T23:10:42.312Z,61.92
2023-01-01T23:13:09.137Z,61.94
2023-01-01T23:15:35.969Z,62.05
2023-01-01T23:18:02.771Z,61.72
2023-01-01T23:20:30.974Z,61.68
2023-01-01T23:22:57.634Z,61.13
2023-01-01T23:25:24.539Z,61.04
2023-01-01T23:27:52.932Z,60.56
2023-01-01T23:30:19.720Z,60.72
2023-01-01T23:32:46.921Z,60.53
2023-01-01T23:35:13.730Z,59.97
2023-01-01T23:37:40.500Z,59.25
2023-01-01T23:40:08.000Z,59.16
2023-01-01T23:42:34.617Z,59.08
2023-01-01T23:45:01.335Z,58.70
2023-01-01T23:47:28.644Z,59.17
2023-01-01T23:49:55.407Z,59.49
2023-01-01T23:52:22.070Z,58.46
2023-01-01T23:54:48.814Z,58.67
2023-01-01T23:57:15.428Z,59.20
2023-01-01T23:59:42.128Z,58.97
